sensor_id;sensor_type;location;lat;lon;timestamp;pressure;altitude;pressure_sealevel;temperature;humidity
21779;BME280;11050;52.222;20.916;2023-04-01T00:01:01;98194.34;;;11.22;100.00
21779;BME280;11050;52.222;20.916;2023-04-01T00:03:28;98196.47;;;11.25;100.00
21779;BME280;11050;52.222;20.916;2023-04-01T00:05:56;98193.81;;;11.20;100.00
21779;BME280;11050;52.222;20.916;2023-04-01T00:08:23;98191.06;;;11.20;100.00
21779;BME280;11050;52.222;20.916;2023-04-01T00:10:49;98197.72;;;11.19;100.00
21779;BME280;11050;52.222;20.916;2023-04-01T00:13:15;98188.34;;;11.20;100.00
21779;BME280;11050;52.222;20.916;2023-04-01T00:15:42;98172.28;;;11.14;100.00
21779;BME280;11050;52.222;20.916;2023-04-01T00:18:08;98175.94;;;11.09;100.00
21779;BME280;11050;52.222;20.916;2023-04-01T00:20:34;98185.31;;;11.08;100.00
21779;BME280;11050;52.222;20.916;2023-04-01T00:23:00;98174.03;;;10.96;100.00
21779;BME280;11050;52.222;20.916;2023-04-01T00:25:26;98162.03;;;10.92;100.00
21779;BME280;11050;52.222;20.916;2023-04-01T00:27:51;98164.97;;;10.96;100.00
21779;BME280;11050;52.222;20.916;2023-04-01T00:30:17;98166.94;;;10.95;100.00
21779;BME280;11050;52.222;20.916;2023-04-01T00:32:43;98168.03;;;10.94;100.00
21779;BME280;11050;52.222;20.916;2023-04-01T00:35:10;98166.41;;;10.93;100.00
21779;BME280;11050;52.222;20.916;2023-04-01T00:37:37;98158.47;;;10.92;100.00
21779;BME280;11050;52.222;20.916;2023-04-01T00:40:06;98166.22;;;10.90;100.00
21779;BME280;11050;52.222;20.916;2023-04-01T00:42:32;98156.47;;;10.84;100.00
21779;BME280;11050;52.222;20.916;2023-04-01T00:44:58;98160.31;;;10.83;100.00
21779;BME280;11050;52.222;20.916;2023-04-01T00:47:26;98156.97;;;10.86;100.00
21779;BME280;11050;52.222;20.916;2023-04-01T00:49:53;98165.41;;;10.89;100.00
21779;BME280;11050;52.222;20.916;2023-04-01T00:52:25;98164.41;;;10.85;100.00
21779;BME280;11050;52.222;20.916;2023-04-01T00:54:58;98168.06;;;10.81;100.00
21779;BME280;11050;52.222;20.916;2023-04-01T00:57:36;98157.69;;;10.78;100.00
21779;BME280;11050;52.222;20.916;2023-04-01T01:00:09;98156.28;;;10.80;100.00
21779;BME280;11050;52.222;20.916;2023-04-01T01:02:35;98160.25;;;10.74;100.00
21779;BME280;11050;52.222;20.916;2023-04-01T01:05:02;98160.56;;;10.73;100.00
21779;BME280;11050;52.222;20.916;2023-04-01T01:07:47;98163.00;;;10.74;100.00
21779;BME280;11050;52.222;20.916;2023-04-01T01:10:34;98141.34;;;10.59;100.00
21779;BME280;11050;52.222;20.916;2023-04-01T01:13:58;98148.03;;;10.67;100.00
21779;BME280;11050;52.222;20.916;2023-04-01T01:18:39;98154.84;;;10.69;100.00
21779;BME280;11050;52.222;20.916;2023-04-01T01:21:46;98158.09;;;10.71;100.00
21779;BME280;11050;52.222;20.916;2023-04-01T01:27:24;98159.31;;;10.79;100.00
21779;BME280;11050;52.222;20.916;2023-04-01T01:30:26;98168.25;;;10.84;100.00
21779;BME280;11050;52.222;20.916;2023-04-01T01:35:57;98162.47;;;10.86;100.00
21779;BME280;11050;52.222;20.916;2023-04-01T01:38:31;98161.03;;;10.88;100.00
21779;BME280;11050;52.222;20.916;2023-04-01T01:41:00;98165.28;;;10.94;100.00
21779;BME280;11050;52.222;20.916;2023-04-01T01:43:35;98160.63;;;10.95;100.00
21779;BME280;11050;52.222;20.916;2023-04-01T01:46:10;98156.44;;;10.97;100.00
21779;BME280;11050;52.222;20.916;2023-04-01T01:48:38;98168.72;;;11.00;100.00
21779;BME280;11050;52.222;20.916;2023-04-01T01:51:06;98157.22;;;10.98;100.00
21779;BME280;11050;52.222;20.916;2023-04-01T01:53:32;98161.63;;;10.99;100.00
21779;BME280;11050;52.222;20.916;2023-04-01T01:55:58;98169.56;;;11.00;100.00
21779;BME280;11050;52.222;20.916;2023-04-01T01:58:43;98169.88;;;10.99;100.00
21779;BME280;11050;52.222;20.916;2023-04-01T02:01:16;98165.97;;;11.00;100.00
21779;BME280;11050;52.222;20.916;2023-04-01T02:03:45;98166.19;;;11.03;100.00
21779;BME280;11050;52.222;20.916;2023-04-01T02:06:18;98155.50;;;11.02;100.00
21779;BME280;11050;52.222;20.916;2023-04-01T02:08:56;98160.88;;;11.07;100.00
21779;BME280;11050;52.222;20.916;2023-04-01T02:11:33;98143.50;;;10.98;100.00
21779;BME280;11050;52.222;20.916;2023-04-01T02:14:13;98148.06;;;11.02;100.00
21779;BME280;11050;52.222;20.916;2023-04-01T02:16:49;98152.44;;;11.03;100.00
21779;BME280;11050;52.222;20.916;2023-04-01T02:19:17;98148.38;;;11.01;100.00
21779;BME280;11050;52.222;20.916;2023-04-01T02:21:54;98133.00;;;11.00;100.00
21779;BME280;11050;52.222;20.916;2023-04-01T02:24:23;98146.75;;;11.00;100.00
21779;BME280;11050;52.222;20.916;2023-04-01T02:26:51;98135.16;;;11.03;100.00
21779;BME280;11050;52.222;20.916;2023-04-01T02:29:21;98129.44;;;10.99;100.00
21779;BME280;11050;52.222;20.916;2023-04-01T02:31:50;98134.16;;;10.99;100.00
21779;BME280;11050;52.222;20.916;2023-04-01T02:34:16;98139.22;;;10.92;100.00
21779;BME280;11050;52.222;20.916;2023-04-01T02:36:42;98132.53;;;10.84;100.00
21779;BME280;11050;52.222;20.916;2023-04-01T02:39:09;98136.09;;;10.85;100.00
21779;BME280;11050;52.222;20.916;2023-04-01T02:41:43;98134.88;;;10.77;100.00
21779;BME280;11050;52.222;20.916;2023-04-01T02:44:12;98125.63;;;10.73;100.00
21779;BME280;11050;52.222;20.916;2023-04-01T02:46:38;98125.88;;;10.63;100.00
21779;BME280;11050;52.222;20.916;2023-04-01T02:49:05;98127.59;;;10.59;100.00
21779;BME280;11050;52.222;20.916;2023-04-01T02:51:32;98135.94;;;10.54;100.00
21779;BME280;11050;52.222;20.916;2023-04-01T02:53:58;98125.06;;;10.49;100.00
21779;BME280;11050;52.222;20.916;2023-04-01T02:56:24;98112.78;;;10.33;100.00
21779;BME280;11050;52.222;20.916;2023-04-01T02:58:52;98127.91;;;10.44;100.00
21779;BME280;11050;52.222;20.916;2023-04-01T03:01:18;98128.81;;;10.53;100.00
21779;BME280;11050;52.222;20.916;2023-04-01T03:03:44;98140.31;;;10.55;100.00
21779;BME280;11050;52.222;20.916;2023-04-01T03:06:13;98139.19;;;10.56;100.00
21779;BME280;11050;52.222;20.916;2023-04-01T03:08:39;98135.03;;;10.59;100.00
21779;BME280;11050;52.222;20.916;2023-04-01T03:11:05;98156.09;;;10.63;100.00
21779;BME280;11050;52.222;20.916;2023-04-01T03:13:32;98139.69;;;10.58;100.00
21779;BME280;11050;52.222;20.916;2023-04-01T03:15:58;98149.06;;;10.57;100.00
21779;BME280;11050;52.222;20.916;2023-04-01T03:18:24;98151.50;;;10.59;100.00
21779;BME280;11050;52.222;20.916;2023-04-01T03:20:50;98141.66;;;10.58;100.00
21779;BME280;11050;52.222;20.916;2023-04-01T03:23:16;98145.09;;;10.63;100.00
21779;BME280;11050;52.222;20.916;2023-04-01T03:25:45;98155.97;;;10.68;100.00
21779;BME280;11050;52.222;20.916;2023-04-01T03:28:10;98155.25;;;10.63;100.00
21779;BME280;11050;52.222;20.916;2023-04-01T03:30:37;98158.84;;;10.63;100.00
21779;BME280;11050;52.222;20.916;2023-04-01T03:33:03;98158.31;;;10.61;100.00
21779;BME280;11050;52.222;20.916;2023-04-01T03:35:29;98161.97;;;10.57;100.00
21779;BME280;11050;52.222;20.916;2023-04-01T03:37:56;98158.91;;;10.58;100.00
21779;BME280;11050;52.222;20.916;2023-04-01T03:40:22;98157.09;;;10.54;100.00
21779;BME280;11050;52.222;20.916;2023-04-01T03:42:49;98157.31;;;10.57;100.00
21779;BME280;11050;52.222;20.916;2023-04-01T03:45:15;98166.13;;;10.54;100.00
21779;BME280;11050;52.222;20.916;2023-04-01T03:47:41;98166.44;;;10.52;100.00
21779;BME280;11050;52.222;20.916;2023-04-01T03:50:08;98176.00;;;10.55;100.00
21779;BME280;11050;52.222;20.916;2023-04-01T03:52:34;98160.25;;;10.47;100.00
21779;BME280;11050;52.222;20.916;2023-04-01T03:55:01;98173.97;;;10.47;100.00
21779;BME280;11050;52.222;20.916;2023-04-01T03:57:27;98178.66;;;10.46;100.00
21779;BME280;11050;52.222;20.916;2023-04-01T03:59:53;98182.72;;;10.49;100.00
21779;BME280;11050;52.222;20.916;2023-04-01T04:02:19;98193.59;;;10.54;100.00
21779;BME280;11050;52.222;20.916;2023-04-01T04:04:44;98191.34;;;10.56;100.00
21779;BME280;11050;52.222;20.916;2023-04-01T04:07:12;98198.00;;;10.55;100.00
21779;BME280;11050;52.222;20.916;2023-04-01T04:09:38;98188.72;;;10.51;100.00
21779;BME280;11050;52.222;20.916;2023-04-01T04:12:04;98193.91;;;10.52;100.00
21779;BME280;11050;52.222;20.916;2023-04-01T04:14:31;98194.94;;;10.57;100.00
21779;BME280;11050;52.222;20.916;2023-04-01T04:16:57;98193.59;;;10.54;100.00
21779;BME280;11050;52.222;20.916;2023-04-01T04:19:23;98194.31;;;10.46;100.00
21779;BME280;11050;52.222;20.916;2023-04-01T04:21:49;98175.50;;;10.39;100.00
21779;BME280;11050;52.222;20.916;2023-04-01T04:24:15;98196.34;;;10.40;100.00
21779;BME280;11050;52.222;20.916;2023-04-01T04:26:41;98200.91;;;10.45;100.00
21779;BME280;11050;52.222;20.916;2023-04-01T04:29:07;98212.22;;;10.43;100.00
21779;BME280;11050;52.222;20.916;2023-04-01T04:31:32;98202.53;;;10.32;100.00
21779;BME280;11050;52.222;20.916;2023-04-01T04:34:00;98221.59;;;10.42;100.00
21779;BME280;11050;52.222;20.916;2023-04-01T04:36:28;98219.63;;;10.43;100.00
21779;BME280;11050;52.222;20.916;2023-04-01T04:38:54;98207.53;;;10.44;100.00
21779;BME280;11050;52.222;20.916;2023-04-01T04:41:20;98218.41;;;10.49;100.00
21779;BME280;11050;52.222;20.916;2023-04-01T04:43:55;98224.53;;;10.46;100.00
21779;BME280;11050;52.222;20.916;2023-04-01T04:46:22;98215.88;;;10.52;100.00
21779;BME280;11050;52.222;20.916;2023-04-01T04:48:48;98214.06;;;10.48;100.00
21779;BME280;11050;52.222;20.916;2023-04-01T04:51:20;98201.53;;;10.42;100.00
21779;BME280;11050;52.222;20.916;2023-04-01T04:53:46;98211.13;;;10.44;100.00
21779;BME280;11050;52.222;20.916;2023-04-01T04:56:12;98210.38;;;10.39;100.00
21779;BME280;11050;52.222;20.916;2023-04-01T04:58:39;98211.41;;;10.43;100.00
21779;BME280;11050;52.222;20.916;2023-04-01T05:01:10;98211.91;;;10.45;100.00
21779;BME280;11050;52.222;20.916;2023-04-01T05:03:37;98215.28;;;10.42;100.00
21779;BME280;11050;52.222;20.916;2023-04-01T05:06:04;98216.59;;;10.44;100.00
21779;BME280;11050;52.222;20.916;2023-04-01T05:08:31;98212.53;;;10.42;100.00
21779;BME280;11050;52.222;20.916;2023-04-01T05:10:58;98218.22;;;10.45;100.00
21779;BME280;11050;52.222;20.916;2023-04-01T05:13:24;98210.19;;;10.49;100.00
21779;BME280;11050;52.222;20.916;2023-04-01T05:15:51;98216.28;;;10.46;100.00
21779;BME280;11050;52.222;20.916;2023-04-01T05:18:17;98209.66;;;10.47;100.00
21779;BME280;11050;52.222;20.916;2023-04-01T05:20:52;98229.41;;;10.49;100.00
21779;BME280;11050;52.222;20.916;2023-04-01T05:23:19;98232.78;;;10.46;100.00
21779;BME280;11050;52.222;20.916;2023-04-01T05:25:48;98228.81;;;10.52;100.00
21779;BME280;11050;52.222;20.916;2023-04-01T05:28:14;98227.56;;;10.58;100.00
21779;BME280;11050;52.222;20.916;2023-04-01T05:30:42;98224.13;;;10.66;100.00
21779;BME280;11050;52.222;20.916;2023-04-01T05:33:09;98223.72;;;10.73;100.00
21779;BME280;11050;52.222;20.916;2023-04-01T05:35:35;98223.81;;;10.68;100.00
21779;BME280;11050;52.222;20.916;2023-04-01T05:38:02;98227.91;;;10.70;100.00
21779;BME280;11050;52.222;20.916;2023-04-01T05:40:28;98222.09;;;10.72;100.00
21779;BME280;11050;52.222;20.916;2023-04-01T05:42:54;98224.25;;;10.75;100.00
21779;BME280;11050;52.222;20.916;2023-04-01T05:45:20;98223.72;;;10.73;100.00
21779;BME280;11050;52.222;20.916;2023-04-01T05:47:46;98220.75;;;10.83;100.00
21779;BME280;11050;52.222;20.916;2023-04-01T05:50:12;98221.25;;;10.98;100.00
21779;BME280;11050;52.222;20.916;2023-04-01T05:52:38;98225.00;;;11.16;100.00
21779;BME280;11050;52.222;20.916;2023-04-01T05:55:05;98228.47;;;11.21;100.00
21779;BME280;11050;52.222;20.916;2023-04-01T05:57:31;98232.22;;;11.25;100.00
21779;BME280;11050;52.222;20.916;2023-04-01T05:59:57;98233.00;;;11.26;100.00
21779;BME280;11050;52.222;20.916;2023-04-01T06:02:23;98233.13;;;11.21;100.00
21779;BME280;11050;52.222;20.916;2023-04-01T06:04:58;98232.09;;;11.30;100.00
21779;BME280;11050;52.222;20.916;2023-04-01T06:07:28;98235.97;;;11.29;100.00
21779;BME280;11050;52.222;20.916;2023-04-01T06:09:55;98229.31;;;11.44;100.00
21779;BME280;11050;52.222;20.916;2023-04-01T06:12:51;98243.59;;;11.46;100.00
21779;BME280;11050;52.222;20.916;2023-04-01T06:24:48;98246.91;;;11.57;100.00
21779;BME280;11050;52.222;20.916;2023-04-01T06:33:46;98255.38;;;11.46;100.00
21779;BME280;11050;52.222;20.916;2023-04-01T06:53:17;98264.72;;;12.17;100.00
21779;BME280;11050;52.222;20.916;2023-04-01T06:55:55;98255.03;;;12.19;100.00
21779;BME280;11050;52.222;20.916;2023-04-01T06:58:44;98263.34;;;12.28;100.00
21779;BME280;11050;52.222;20.916;2023-04-01T07:01:45;98256.03;;;12.23;100.00
21779;BME280;11050;52.222;20.916;2023-04-01T07:04:36;98245.59;;;12.12;100.00
21779;BME280;11050;52.222;20.916;2023-04-01T07:07:27;98259.03;;;12.13;100.00
21779;BME280;11050;52.222;20.916;2023-04-01T07:09:57;98259.72;;;11.97;100.00
21779;BME280;11050;52.222;20.916;2023-04-01T07:12:40;98262.72;;;11.87;100.00
21779;BME280;11050;52.222;20.916;2023-04-01T07:15:36;98253.41;;;11.74;100.00
21779;BME280;11050;52.222;20.916;2023-04-01T07:18:32;98263.97;;;11.81;100.00
21779;BME280;11050;52.222;20.916;2023-04-01T07:21:01;98263.72;;;11.91;100.00
21779;BME280;11050;52.222;20.916;2023-04-01T07:23:42;98247.75;;;12.01;100.00
21779;BME280;11050;52.222;20.916;2023-04-01T07:26:23;98255.03;;;11.97;100.00
21779;BME280;11050;52.222;20.916;2023-04-01T07:28:52;98269.88;;;11.88;100.00
21779;BME280;11050;52.222;20.916;2023-04-01T07:31:39;98261.91;;;11.86;100.00
21779;BME280;11050;52.222;20.916;2023-04-01T07:34:38;98254.78;;;11.85;100.00
21779;BME280;11050;52.222;20.916;2023-04-01T07:37:16;98259.78;;;12.05;100.00
21779;BME280;11050;52.222;20.916;2023-04-01T07:43:25;98257.50;;;12.52;100.00
21779;BME280;11050;52.222;20.916;2023-04-01T07:48:54;98261.69;;;12.49;100.00
21779;BME280;11050;52.222;20.916;2023-04-01T07:54:38;98261.72;;;12.58;100.00
21779;BME280;11050;52.222;20.916;2023-04-01T07:57:19;98259.66;;;12.63;100.00
21779;BME280;11050;52.222;20.916;2023-04-01T08:00:06;98259.69;;;12.72;100.00
21779;BME280;11050;52.222;20.916;2023-04-01T08:03:53;98257.66;;;12.94;100.00
21779;BME280;11050;52.222;20.916;2023-04-01T08:15:28;98277.69;;;13.82;100.00
21779;BME280;11050;52.222;20.916;2023-04-01T08:18:23;98277.50;;;13.87;100.00
21779;BME280;11050;52.222;20.916;2023-04-01T08:21:02;98284.44;;;13.50;100.00
21779;BME280;11050;52.222;20.916;2023-04-01T08:23:38;98281.00;;;13.27;100.00
21779;BME280;11050;52.222;20.916;2023-04-01T08:26:46;98280.81;;;13.24;100.00
21779;BME280;11050;52.222;20.916;2023-04-01T08:29:19;98281.00;;;13.27;100.00
21779;BME280;11050;52.222;20.916;2023-04-01T08:32:03;98276.44;;;13.23;100.00
21779;BME280;11050;52.222;20.916;2023-04-01T08:34:48;98284.28;;;13.38;100.00
21779;BME280;11050;52.222;20.916;2023-04-01T08:37:21;98282.63;;;13.37;100.00
21779;BME280;11050;52.222;20.916;2023-04-01T08:39:55;98295.63;;;13.37;100.00
21779;BME280;11050;52.222;20.916;2023-04-01T08:47:13;98300.66;;;13.35;100.00
21779;BME280;11050;52.222;20.916;2023-04-01T08:49:47;98297.69;;;13.22;100.00
21779;BME280;11050;52.222;20.916;2023-04-01T08:53:34;98299.81;;;13.25;100.00
21779;BME280;11050;52.222;20.916;2023-04-01T09:02:18;98295.44;;;13.24;100.00
21779;BME280;11050;52.222;20.916;2023-04-01T09:08:17;98307.06;;;13.13;100.00
21779;BME280;11050;52.222;20.916;2023-04-01T09:36:45;98323.66;;;13.21;100.00
21779;BME280;11050;52.222;20.916;2023-04-01T09:39:37;98324.81;;;13.29;100.00
21779;BME280;11050;52.222;20.916;2023-04-01T09:45:09;98321.75;;;13.39;100.00
21779;BME280;11050;52.222;20.916;2023-04-01T09:47:58;98318.22;;;13.56;100.00
21779;BME280;11050;52.222;20.916;2023-04-01T09:50:39;98327.50;;;13.68;100.00
21779;BME280;11050;52.222;20.916;2023-04-01T09:53:28;98317.09;;;13.65;99.89
21779;BME280;11050;52.222;20.916;2023-04-01T09:56:33;98326.31;;;13.44;99.58
21779;BME280;11050;52.222;20.916;2023-04-01T09:59:38;98327.75;;;13.32;99.99
21779;BME280;11050;52.222;20.916;2023-04-01T10:09:03;98328.69;;;13.19;100.00
21779;BME280;11050;52.222;20.916;2023-04-01T10:17:57;98324.56;;;13.56;100.00
21779;BME280;11050;52.222;20.916;2023-04-01T10:49:47;98338.06;;;14.69;90.09
21779;BME280;11050;52.222;20.916;2023-04-01T11:01:27;98344.19;;;15.00;84.88
21779;BME280;11050;52.222;20.916;2023-04-01T11:29:48;98349.00;;;15.20;90.60
21779;BME280;11050;52.222;20.916;2023-04-01T11:35:13;98350.34;;;14.42;95.56
21779;BME280;11050;52.222;20.916;2023-04-01T11:38:26;98347.38;;;14.13;99.42
21779;BME280;11050;52.222;20.916;2023-04-01T11:41:41;98351.41;;;13.90;100.00
21779;BME280;11050;52.222;20.916;2023-04-01T11:47:22;98350.63;;;13.89;100.00
21779;BME280;11050;52.222;20.916;2023-04-01T11:50:20;98355.81;;;13.91;96.92
21779;BME280;11050;52.222;20.916;2023-04-01T12:13:43;98359.28;;;15.19;83.94
21779;BME280;11050;52.222;20.916;2023-04-01T12:16:29;98353.00;;;15.69;84.80
21779;BME280;11050;52.222;20.916;2023-04-01T12:27:26;98371.06;;;17.67;70.39
21779;BME280;11050;52.222;20.916;2023-04-01T12:30:18;98373.97;;;17.83;68.08
21779;BME280;11050;52.222;20.916;2023-04-01T12:38:39;98377.16;;;19.16;60.44
21779;BME280;11050;52.222;20.916;2023-04-01T12:41:34;98373.09;;;19.41;59.95
21779;BME280;11050;52.222;20.916;2023-04-01T12:44:26;98372.81;;;19.62;60.83
21779;BME280;11050;52.222;20.916;2023-04-01T12:47:31;98372.63;;;19.39;59.93
21779;BME280;11050;52.222;20.916;2023-04-01T12:55:43;98372.06;;;18.23;64.42
21779;BME280;11050;52.222;20.916;2023-04-01T13:01:36;98385.72;;;17.44;66.07
21779;BME280;11050;52.222;20.916;2023-04-01T13:07:08;98384.88;;;16.54;71.37
21779;BME280;11050;52.222;20.916;2023-04-01T13:10:06;98382.75;;;16.09;74.81
21779;BME280;11050;52.222;20.916;2023-04-01T13:18:32;98389.56;;;15.07;84.72
21779;BME280;11050;52.222;20.916;2023-04-01T13:29:39;98401.84;;;14.64;95.48
21779;BME280;11050;52.222;20.916;2023-04-01T13:44:15;98403.97;;;15.30;93.38
21779;BME280;11050;52.222;20.916;2023-04-01T14:07:32;98434.41;;;13.85;100.00
21779;BME280;11050;52.222;20.916;2023-04-01T14:13:09;98439.84;;;13.59;100.00
21779;BME280;11050;52.222;20.916;2023-04-01T14:18:45;98441.53;;;13.38;100.00
21779;BME280;11050;52.222;20.916;2023-04-01T14:27:26;98445.78;;;13.13;100.00
21779;BME280;11050;52.222;20.916;2023-04-01T14:33:15;98449.72;;;12.77;100.00
21779;BME280;11050;52.222;20.916;2023-04-01T14:48:15;98470.47;;;12.74;100.00
21779;BME280;11050;52.222;20.916;2023-04-01T14:50:50;98476.34;;;12.81;100.00
21779;BME280;11050;52.222;20.916;2023-04-01T14:55:58;98481.59;;;12.69;100.00
21779;BME280;11050;52.222;20.916;2023-04-01T14:58:46;98488.84;;;12.65;100.00
21779;BME280;11050;52.222;20.916;2023-04-01T15:24:21;98509.41;;;11.96;100.00
21779;BME280;11050;52.222;20.916;2023-04-01T15:38:52;98541.41;;;11.92;100.00
21779;BME280;11050;52.222;20.916;2023-04-01T15:41:43;98538.25;;;11.85;100.00
21779;BME280;11050;52.222;20.916;2023-04-01T15:46:58;98549.56;;;11.84;100.00
21779;BME280;11050;52.222;20.916;2023-04-01T15:49:47;98541.59;;;11.82;100.00
21779;BME280;11050;52.222;20.916;2023-04-01T15:55:27;98557.31;;;11.82;100.00
21779;BME280;11050;52.222;20.916;2023-04-01T16:01:27;98569.31;;;11.72;100.00
21779;BME280;11050;52.222;20.916;2023-04-01T16:04:23;98577.66;;;11.67;100.00
21779;BME280;11050;52.222;20.916;2023-04-01T16:13:46;98598.63;;;11.63;100.00
21779;BME280;11050;52.222;20.916;2023-04-01T16:17:06;98599.00;;;11.57;100.00
21779;BME280;11050;52.222;20.916;2023-04-01T16:19:53;98602.75;;;11.47;100.00
21779;BME280;11050;52.222;20.916;2023-04-01T16:25:51;98606.19;;;11.39;100.00
21779;BME280;11050;52.222;20.916;2023-04-01T16:31:38;98608.50;;;11.32;100.00
21779;BME280;11050;52.222;20.916;2023-04-01T16:34:41;98617.94;;;11.26;100.00
21779;BME280;11050;52.222;20.916;2023-04-01T16:37:22;98623.16;;;11.27;100.00
21779;BME280;11050;52.222;20.916;2023-04-01T16:43:43;98628.50;;;11.19;100.00
21779;BME280;11050;52.222;20.916;2023-04-01T16:51:57;98659.94;;;11.13;100.00
21779;BME280;11050;52.222;20.916;2023-04-01T16:57:36;98668.72;;;11.15;100.00
21779;BME280;11050;52.222;20.916;2023-04-01T17:02:58;98680.09;;;11.08;100.00
21779;BME280;11050;52.222;20.916;2023-04-01T17:05:55;98677.91;;;11.05;100.00
21779;BME280;11050;52.222;20.916;2023-04-01T17:11:28;98678.81;;;11.01;100.00
21779;BME280;11050;52.222;20.916;2023-04-01T17:14:28;98697.69;;;11.07;100.00
21779;BME280;11050;52.222;20.916;2023-04-01T17:17:24;98693.97;;;10.98;100.00
21779;BME280;11050;52.222;20.916;2023-04-01T17:26:46;98703.03;;;10.99;100.00
21779;BME280;11050;52.222;20.916;2023-04-01T17:29:28;98705.59;;;10.90;100.00
21779;BME280;11050;52.222;20.916;2023-04-01T17:32:11;98714.97;;;10.89;100.00
21779;BME280;11050;52.222;20.916;2023-04-01T17:35:05;98724.69;;;10.82;100.00
21779;BME280;11050;52.222;20.916;2023-04-01T17:55:49;98752.28;;;10.48;100.00
21779;BME280;11050;52.222;20.916;2023-04-01T17:58:21;98757.56;;;10.44;100.00
21779;BME280;11050;52.222;20.916;2023-04-01T18:04:18;98776.25;;;10.42;100.00
21779;BME280;11050;52.222;20.916;2023-04-01T18:18:46;98793.25;;;10.11;100.00
21779;BME280;11050;52.222;20.916;2023-04-01T18:21:43;98801.22;;;10.12;100.00
21779;BME280;11050;52.222;20.916;2023-04-01T18:24:30;98803.66;;;10.09;100.00
21779;BME280;11050;52.222;20.916;2023-04-01T18:30:11;98813.00;;;10.13;100.00
21779;BME280;11050;52.222;20.916;2023-04-01T18:33:03;98822.06;;;10.13;100.00
21779;BME280;11050;52.222;20.916;2023-04-01T18:35:53;98818.53;;;10.08;100.00
21779;BME280;11050;52.222;20.916;2023-04-01T18:38:35;98822.66;;;10.05;100.00
21779;BME280;11050;52.222;20.916;2023-04-01T18:47:44;98842.97;;;10.09;100.00
21779;BME280;11050;52.222;20.916;2023-04-01T18:56:01;98847.34;;;10.05;100.00
21779;BME280;11050;52.222;20.916;2023-04-01T18:58:42;98853.66;;;10.06;100.00
21779;BME280;11050;52.222;20.916;2023-04-01T19:01:26;98849.28;;;10.05;100.00
21779;BME280;11050;52.222;20.916;2023-04-01T19:04:26;98858.84;;;10.07;100.00
21779;BME280;11050;52.222;20.916;2023-04-01T19:10:13;98855.34;;;10.02;100.00
21779;BME280;11050;52.222;20.916;2023-04-01T19:13:10;98858.38;;;10.00;100.00
21779;BME280;11050;52.222;20.916;2023-04-01T19:15:56;98870.47;;;9.94;100.00
21779;BME280;11050;52.222;20.916;2023-04-01T19:22:03;98868.31;;;9.86;100.00
21779;BME280;11050;52.222;20.916;2023-04-01T19:25:37;98890.56;;;9.85;100.00
21779;BME280;11050;52.222;20.916;2023-04-01T19:28:19;98890.03;;;9.83;100.00
21779;BME280;11050;52.222;20.916;2023-04-01T19:34:16;98895.22;;;9.84;100.00
21779;BME280;11050;52.222;20.916;2023-04-01T19:36:50;98896.63;;;9.82;100.00
21779;BME280;11050;52.222;20.916;2023-04-01T19:39:33;98904.28;;;9.85;100.00
21779;BME280;11050;52.222;20.916;2023-04-01T19:45:45;98917.75;;;9.81;100.00
21779;BME280;11050;52.222;20.916;2023-04-01T19:51:57;98924.06;;;9.82;100.00
21779;BME280;11050;52.222;20.916;2023-04-01T19:57:41;98927.34;;;9.84;100.00
21779;BME280;11050;52.222;20.916;2023-04-01T20:00:28;98935.88;;;9.82;100.00
21779;BME280;11050;52.222;20.916;2023-04-01T20:05:45;98935.34;;;9.80;100.00
21779;BME280;11050;52.222;20.916;2023-04-01T20:11:12;98947.38;;;9.79;100.00
21779;BME280;11050;52.222;20.916;2023-04-01T20:19:44;98945.50;;;9.70;100.00
21779;BME280;11050;52.222;20.916;2023-04-01T20:25:22;98942.28;;;9.52;100.00
21779;BME280;11050;52.222;20.916;2023-04-01T20:28:02;98951.34;;;9.53;100.00
21779;BME280;11050;52.222;20.916;2023-04-01T20:45:27;98966.75;;;9.34;100.00
21779;BME280;11050;52.222;20.916;2023-04-01T20:48:20;98967.31;;;9.31;100.00
21779;BME280;11050;52.222;20.916;2023-04-01T20:50:59;98972.00;;;9.25;100.00
21779;BME280;11050;52.222;20.916;2023-04-01T20:53:43;98971.47;;;9.23;100.00
21779;BME280;11050;52.222;20.916;2023-04-01T21:05:45;98996.69;;;9.05;100.00
21779;BME280;11050;52.222;20.916;2023-04-01T21:11:51;98995.88;;;9.10;100.00
21779;BME280;11050;52.222;20.916;2023-04-01T21:14:52;99012.28;;;9.15;100.00
21779;BME280;11050;52.222;20.916;2023-04-01T21:20:18;99023.28;;;9.05;100.00
21779;BME280;11050;52.222;20.916;2023-04-01T21:23:29;99016.13;;;9.09;100.00
21779;BME280;11050;52.222;20.916;2023-04-01T21:26:24;99017.50;;;9.11;100.00
21779;BME280;11050;52.222;20.916;2023-04-01T21:29:13;99027.91;;;9.09;100.00
21779;BME280;11050;52.222;20.916;2023-04-01T21:35:37;99032.56;;;9.09;100.00
21779;BME280;11050;52.222;20.916;2023-04-01T21:41:24;99039.72;;;9.10;100.00
21779;BME280;11050;52.222;20.916;2023-04-01T21:50:39;99046.84;;;9.06;100.00
21779;BME280;11050;52.222;20.916;2023-04-01T21:53:44;99059.97;;;9.09;100.00
21779;BME280;11050;52.222;20.916;2023-04-01T22:14:28;99059.72;;;9.10;100.00
21779;BME280;11050;52.222;20.916;2023-04-01T22:17:00;99066.84;;;9.11;100.00
21779;BME280;11050;52.222;20.916;2023-04-01T22:23:12;99081.09;;;9.08;100.00
21779;BME280;11050;52.222;20.916;2023-04-01T22:31:43;99085.50;;;8.99;100.00
21779;BME280;11050;52.222;20.916;2023-04-01T22:34:27;99092.03;;;8.98;100.00
21779;BME280;11050;52.222;20.916;2023-04-01T22:37:17;99096.97;;;8.96;100.00
21779;BME280;11050;52.222;20.916;2023-04-01T22:40:18;99100.56;;;8.92;100.00